Time;durP1;ratioP1;P1;durP2;ratioP2;P2;SDS_P1;SDS_P2;PMS_P1;PMS_P2;Temp;Humidity;BMP_temperature;BMP_pressure;BME280_temperature;BME280_humidity;BME280_pressure;Samples;Min_cycle;Max_cycle;Signal;HPM_P1;HPM_P2
2022/01/21 00:00:12;;;;;;;10.05;2.35;;;1.60;99.90;;;;;;5105872;28;20044;-72
2022/01/21 00:02:38;;;;;;;11.25;2.80;;;1.60;99.90;;;;;;5108090;28;20027;-73
2022/01/21 00:05:05;;;;;;;13.77;2.97;;;1.60;99.90;;;;;;5105173;28;20495;-73
2022/01/21 00:07:31;;;;;;;6.88;2.15;;;1.60;99.90;;;;;;5091935;28;20540;-73
2022/01/21 00:09:56;;;;;;;8.88;2.30;;;1.60;99.90;;;;;;5087919;28;20175;-73
2022/01/21 00:12:23;;;;;;;7.30;2.42;;;1.60;99.90;;;;;;5107207;28;20131;-73
2022/01/21 00:14:49;;;;;;;10.75;2.83;;;1.60;99.90;;;;;;5107920;28;20020;-73
2022/01/21 00:17:17;;;;;;;11.77;2.63;;;1.50;99.90;;;;;;5109056;28;20036;-73
2022/01/21 00:19:46;;;;;;;12.65;2.97;;;1.50;99.90;;;;;;5091972;28;20019;-73
2022/01/21 00:30:32;;;;;;;;;;;1.40;99.90;;;;;;5108186;28;20034;-72
2022/01/21 00:32:58;;;;;;;6.43;2.33;;;1.40;99.90;;;;;;5105221;28;19908;-72
2022/01/21 00:35:23;;;;;;;11.77;2.63;;;1.30;99.90;;;;;;5087223;28;20042;-72
2022/01/21 00:37:50;;;;;;;16.45;3.15;;;1.30;99.90;;;;;;5092266;28;20028;-72
2022/01/21 00:40:21;;;;;;;6.80;2.60;;;1.20;99.90;;;;;;5107418;28;20028;-72
2022/01/21 00:45:18;;;;;;;11.80;2.72;;;1.20;99.90;;;;;;5114381;28;20072;-72
2022/01/21 00:47:44;;;;;;;6.10;2.10;;;1.20;99.90;;;;;;5090782;28;20034;-73
2022/01/21 00:50:11;;;;;;;8.23;2.40;;;1.10;99.90;;;;;;5107904;28;20023;-73
2022/01/21 00:52:37;;;;;;;11.40;3.08;;;1.10;99.90;;;;;;5088442;28;20027;-73
2022/01/21 00:55:05;;;;;;;11.43;2.60;;;1.10;99.90;;;;;;5096818;27;20036;-73
2022/01/21 00:57:31;;;;;;;15.18;4.25;;;1.10;99.90;;;;;;5110100;28;20035;-73
2022/01/21 00:59:56;;;;;;;6.78;2.47;;;1.00;99.90;;;;;;5086283;28;20024;-73
2022/01/21 01:02:22;;;;;;;13.60;2.95;;;1.00;99.90;;;;;;5109168;28;20498;-73
2022/01/21 01:04:48;;;;;;;9.18;2.35;;;1.00;99.90;;;;;;5106506;27;20020;-72
2022/01/21 01:07:13;;;;;;;8.48;3.28;;;1.10;99.90;;;;;;5091732;27;20023;-73
2022/01/21 01:09:41;;;;;;;10.80;3.00;;;1.00;99.90;;;;;;5090725;28;20024;-72
2022/01/21 01:12:18;;;;;;;9.55;3.08;;;1.00;99.90;;;;;;5108488;27;20476;-72
2022/01/21 01:20:13;;;;;;;9.43;2.40;;;1.00;99.90;;;;;;5105501;27;20058;-72
2022/01/21 01:28:02;;;;;;;10.18;2.47;;;1.10;99.90;;;;;;5111809;27;20073;-72
2022/01/21 01:30:31;;;;;;;5.93;1.85;;;1.10;99.90;;;;;;5106004;27;20069;-72
2022/01/21 01:32:59;;;;;;;7.05;2.28;;;1.10;99.90;;;;;;5109323;27;20023;-72
2022/01/21 01:35:31;;;;;;;6.28;2.35;;;1.10;99.90;;;;;;5115463;27;20023;-72
2022/01/21 01:49:22;;;;;;;8.23;2.60;;;1.10;99.90;;;;;;5097075;28;20464;-74
2022/01/21 01:51:17;;;;;;;14.10;2.17;;;1.10;99.90;;;;;;5101551;28;20469;-72
2022/01/21 01:53:53;;;;;;;8.80;2.38;;;1.10;99.90;;;;;;5105055;27;20472;-73
2022/01/21 01:56:24;;;;;;;7.07;2.00;;;1.10;99.90;;;;;;5092176;28;20026;-73
2022/01/21 01:58:50;;;;;;;4.70;1.90;;;1.10;99.90;;;;;;5091656;27;20019;-73
2022/01/21 02:01:15;;;;;;;11.20;2.78;;;1.10;99.90;;;;;;5108591;27;20105;-73
2022/01/21 02:03:41;;;;;;;14.15;2.90;;;1.10;99.90;;;;;;5108392;27;20019;-73
2022/01/21 02:06:07;;;;;;;8.82;2.08;;;1.10;99.90;;;;;;5107106;27;20026;-73
2022/01/21 02:08:33;;;;;;;12.18;2.17;;;1.10;99.90;;;;;;5107025;27;20231;-73
2022/01/21 02:10:59;;;;;;;7.22;2.00;;;1.10;99.90;;;;;;5116959;27;20038;-74
2022/01/21 02:13:28;;;;;;;9.63;1.92;;;1.10;99.90;;;;;;5091704;28;20032;-73
2022/01/21 02:21:43;;;;;;;7.05;2.47;;;1.20;99.90;;;;;;5110220;28;20388;-72
2022/01/21 02:24:13;;;;;;;;;;;1.20;99.90;;;;;;5113772;27;20072;-73
2022/01/21 02:26:39;;;;;;;5.43;2.33;;;1.20;99.90;;;;;;5104726;27;19908;-72
2022/01/21 02:29:05;;;;;;;11.45;2.00;;;1.20;99.90;;;;;;5076058;28;20028;-72
2022/01/21 02:31:32;;;;;;;6.93;2.25;;;1.20;99.90;;;;;;5106848;27;20024;-72
2022/01/21 02:33:58;;;;;;;10.23;1.92;;;1.30;99.90;;;;;;5108939;27;20019;-72
2022/01/21 02:36:25;;;;;;;10.50;2.28;;;1.30;99.90;;;;;;5109971;28;20472;-72
2022/01/21 02:38:50;;;;;;;11.32;2.05;;;1.40;99.90;;;;;;5091165;28;20119;-72
2022/01/21 02:41:16;;;;;;;11.85;1.85;;;1.40;99.90;;;;;;5105086;28;20024;-72
2022/01/21 02:43:42;;;;;;;7.38;1.67;;;1.40;99.90;;;;;;5090710;28;20020;-72
2022/01/21 02:46:09;;;;;;;10.63;2.35;;;1.40;99.90;;;;;;5109239;28;20015;-72
2022/01/21 02:48:38;;;;;;;7.25;1.70;;;1.40;99.90;;;;;;5089885;28;20546;-71
2022/01/21 02:51:09;;;;;;;4.60;1.48;;;1.40;99.90;;;;;;5093001;28;20024;-71
2022/01/21 02:56:05;;;;;;;9.73;2.42;;;1.40;99.90;;;;;;5097602;28;20084;-71
2022/01/21 02:58:32;;;;;;;6.00;1.60;;;1.50;99.90;;;;;;5102785;28;20039;-71
2022/01/21 03:00:58;;;;;;;5.05;1.85;;;1.50;99.90;;;;;;5082530;28;20035;-71
2022/01/21 03:03:23;;;;;;;8.27;1.60;;;1.60;99.90;;;;;;5090424;28;20476;-71
2022/01/21 03:05:49;;;;;;;10.10;2.20;;;1.60;99.90;;;;;;5104831;28;20035;-72
2022/01/21 03:08:15;;;;;;;10.50;2.42;;;1.60;99.90;;;;;;5088682;28;20054;-72
2022/01/21 03:10:41;;;;;;;7.95;1.83;;;1.60;99.90;;;;;;5105334;27;20035;-72
2022/01/21 03:13:06;;;;;;;6.53;2.05;;;1.60;99.90;;;;;;5087616;28;20114;-72
2022/01/21 03:15:32;;;;;;;8.35;2.00;;;1.60;99.90;;;;;;5083688;27;20451;-72
2022/01/21 03:17:58;;;;;;;11.70;2.10;;;1.70;99.90;;;;;;5104593;27;20086;-72
2022/01/21 03:20:24;;;;;;;10.35;1.88;;;1.60;99.90;;;;;;5101097;27;20381;-72
2022/01/21 03:22:49;;;;;;;6.80;1.88;;;1.60;99.90;;;;;;5093245;28;20024;-71
2022/01/21 03:25:15;;;;;;;6.95;1.67;;;1.60;99.90;;;;;;5090478;28;20077;-72
2022/01/21 03:27:41;;;;;;;7.90;2.15;;;1.50;99.90;;;;;;5091227;28;20028;-72
2022/01/21 03:30:08;;;;;;;7.35;1.98;;;1.60;99.90;;;;;;5105658;28;20062;-72
2022/01/21 03:32:34;;;;;;;7.65;1.67;;;1.50;99.90;;;;;;5087557;28;20111;-72
2022/01/21 03:35:00;;;;;;;7.57;1.65;;;1.50;99.90;;;;;;5106602;27;21516;-72
2022/01/21 03:37:25;;;;;;;4.03;1.77;;;1.50;99.90;;;;;;5102687;27;20032;-72
2022/01/21 03:39:51;;;;;;;8.10;1.63;;;1.50;99.90;;;;;;5092114;28;20020;-72
2022/01/21 03:42:16;;;;;;;14.85;3.10;;;1.40;99.90;;;;;;5102875;28;20051;-72
2022/01/21 03:44:42;;;;;;;7.15;2.13;;;1.40;99.90;;;;;;5091086;28;20461;-72
2022/01/21 03:47:08;;;;;;;12.38;2.13;;;1.40;99.90;;;;;;5105008;28;20032;-72
2022/01/21 03:49:39;;;;;;;11.75;1.92;;;1.50;99.90;;;;;;5100768;28;20503;-72
2022/01/21 03:52:06;;;;;;;7.50;2.03;;;1.50;99.90;;;;;;5106882;27;20032;-72
2022/01/21 03:54:32;;;;;;;10.27;1.58;;;1.50;99.90;;;;;;5106662;28;20076;-72
2022/01/21 03:56:59;;;;;;;9.70;2.10;;;1.50;99.90;;;;;;5109909;27;20066;-73
2022/01/21 03:59:25;;;;;;;9.70;2.20;;;1.50;99.90;;;;;;5098568;28;20395;-72
2022/01/21 04:01:51;;;;;;;5.47;1.55;;;1.40;99.90;;;;;;5089052;28;20028;-71
2022/01/21 04:04:16;;;;;;;9.45;2.03;;;1.50;99.90;;;;;;5108229;28;20595;-72
2022/01/21 04:06:42;;;;;;;7.00;1.60;;;1.50;99.90;;;;;;5104707;28;20024;-72
2022/01/21 04:09:08;;;;;;;9.57;1.73;;;1.40;99.90;;;;;;5106945;28;20051;-72
2022/01/21 04:11:34;;;;;;;7.63;1.80;;;1.40;99.90;;;;;;5100084;28;20484;-71
2022/01/21 04:13:59;;;;;;;11.70;2.40;;;1.40;99.90;;;;;;5106914;28;20019;-71
2022/01/21 04:16:25;;;;;;;6.93;2.75;;;1.40;99.90;;;;;;5089504;28;20527;-71
2022/01/21 04:18:51;;;;;;;8.68;2.13;;;1.30;99.90;;;;;;5095904;28;20031;-72
2022/01/21 04:21:16;;;;;;;11.80;2.42;;;1.40;99.90;;;;;;5111612;28;20030;-72
2022/01/21 04:23:42;;;;;;;4.65;2.10;;;1.40;99.90;;;;;;5085162;28;20035;-73
2022/01/21 04:26:08;;;;;;;8.32;1.90;;;1.40;99.90;;;;;;5104894;28;20159;-72
2022/01/21 04:28:34;;;;;;;7.45;2.17;;;1.30;99.90;;;;;;5107434;28;20093;-71
2022/01/21 04:31:00;;;;;;;5.05;1.80;;;1.30;99.90;;;;;;5111891;28;20027;-74
2022/01/21 04:33:26;;;;;;;7.40;1.85;;;1.30;99.90;;;;;;5105452;28;20024;-73
2022/01/21 04:35:51;;;;;;;6.88;1.67;;;1.30;99.90;;;;;;5091885;28;20396;-73
2022/01/21 04:38:21;;;;;;;7.70;2.08;;;1.20;99.90;;;;;;5104691;28;20031;-73
2022/01/21 04:41:18;;;;;;;6.53;2.00;;;1.20;99.90;;;;;;5102180;28;20073;-72
2022/01/21 04:49:15;;;;;;;;;;;1.30;99.90;;;;;;5111433;28;20065;-73
2022/01/21 04:52:01;;;;;;;7.57;1.90;;;1.30;99.90;;;;;;5105677;28;19908;-73
2022/01/21 04:54:26;;;;;;;7.28;1.75;;;1.30;99.90;;;;;;5112544;28;20031;-72
2022/01/21 04:56:52;;;;;;;9.48;2.22;;;1.30;99.90;;;;;;5107984;28;20148;-71
2022/01/21 04:59:18;;;;;;;5.68;2.15;;;1.20;99.90;;;;;;5087167;28;20434;-71
2022/01/21 05:01:43;;;;;;;9.25;2.17;;;1.20;99.90;;;;;;5102772;28;20024;-73
2022/01/21 05:04:09;;;;;;;12.27;2.65;;;1.20;99.90;;;;;;5109044;28;20111;-74
2022/01/21 05:06:35;;;;;;;9.77;2.92;;;1.20;99.90;;;;;;5088389;28;20507;-76
2022/01/21 05:09:01;;;;;;;8.65;2.35;;;1.20;99.90;;;;;;5093798;28;20395;-76
2022/01/21 05:11:26;;;;;;;7.57;1.90;;;1.20;99.90;;;;;;5111462;28;20027;-73
2022/01/21 05:13:59;;;;;;;7.50;2.30;;;1.20;99.90;;;;;;5107763;28;20429;-74
2022/01/21 05:16:37;;;;;;;7.45;2.42;;;1.20;99.90;;;;;;5103813;28;20039;-73
2022/01/21 05:19:12;;;;;;;5.53;2.47;;;1.20;99.90;;;;;;5103915;28;20372;-73
2022/01/21 05:21:38;;;;;;;10.63;2.47;;;1.20;99.90;;;;;;5090446;28;20480;-73
2022/01/21 05:24:04;;;;;;;5.63;2.17;;;1.20;99.90;;;;;;5099645;28;20038;-74
2022/01/21 05:26:36;;;;;;;7.68;2.38;;;1.10;99.90;;;;;;5104460;28;20102;-75
2022/01/21 05:29:04;;;;;;;6.97;2.40;;;1.20;99.90;;;;;;5112899;28;20027;-66
2022/01/21 05:31:30;;;;;;;7.85;2.15;;;1.30;99.90;;;;;;5106706;28;20520;-67
2022/01/21 05:33:56;;;;;;;10.38;2.35;;;1.40;99.90;;;;;;5104467;28;20157;-67
2022/01/21 05:36:22;;;;;;;9.48;2.67;;;1.60;99.90;;;;;;5107378;28;20058;-67
2022/01/21 05:38:47;;;;;;;9.68;2.20;;;1.70;99.90;;;;;;5102548;28;20486;-67
2022/01/21 05:41:14;;;;;;;10.48;2.78;;;1.70;99.90;;;;;;5107113;28;20031;-67
2022/01/21 05:43:45;;;;;;;10.70;2.20;;;1.80;99.90;;;;;;5100460;28;20073;-74
2022/01/21 05:49:11;;;;;;;7.75;2.00;;;1.80;99.90;;;;;;5061012;28;20392;-73
2022/01/21 05:51:38;;;;;;;7.68;1.80;;;1.80;99.90;;;;;;5106862;28;20020;-74
2022/01/21 05:54:04;;;;;;;7.32;2.05;;;1.70;99.90;;;;;;5101851;28;20032;-74
2022/01/21 05:56:31;;;;;;;4.13;2.05;;;1.70;99.90;;;;;;5102652;28;20019;-74
2022/01/21 05:58:57;;;;;;;7.50;2.53;;;1.70;99.90;;;;;;5107661;28;20362;-74
2022/01/21 06:01:22;;;;;;;11.18;2.83;;;1.60;99.90;;;;;;5102812;28;20028;-74
2022/01/21 06:03:49;;;;;;;12.38;3.20;;;1.50;99.90;;;;;;5103947;28;20023;-74
2022/01/21 06:06:15;;;;;;;6.43;2.38;;;1.50;99.90;;;;;;5107976;28;20049;-74
2022/01/21 06:08:41;;;;;;;13.52;3.25;;;1.50;99.90;;;;;;5084745;28;20054;-74
2022/01/21 06:11:07;;;;;;;10.70;2.65;;;1.50;99.90;;;;;;5099714;28;20103;-74
2022/01/21 06:13:34;;;;;;;7.85;2.45;;;1.50;99.90;;;;;;5106148;27;20023;-74
2022/01/21 06:15:59;;;;;;;8.13;2.50;;;1.40;99.90;;;;;;5085258;28;20066;-74
2022/01/21 06:18:26;;;;;;;7.30;2.55;;;1.40;99.90;;;;;;5103464;28;20065;-74
2022/01/21 06:20:52;;;;;;;8.88;2.55;;;1.50;99.90;;;;;;5108577;28;20062;-74
2022/01/21 06:23:18;;;;;;;15.90;3.63;;;1.50;99.90;;;;;;5086738;28;20028;-73
2022/01/21 06:25:44;;;;;;;9.18;2.90;;;1.50;99.90;;;;;;5103377;28;20069;-73
2022/01/21 06:28:10;;;;;;;12.98;3.28;;;1.40;99.90;;;;;;5086359;28;20028;-73
2022/01/21 06:30:37;;;;;;;7.43;2.60;;;1.50;99.90;;;;;;5092143;28;20468;-73
2022/01/21 06:33:03;;;;;;;7.43;2.90;;;1.50;99.90;;;;;;5102737;28;20051;-75
2022/01/21 06:35:29;;;;;;;5.15;2.38;;;1.50;99.90;;;;;;5106960;28;20039;-74
2022/01/21 06:37:54;;;;;;;9.55;3.22;;;1.50;99.90;;;;;;5109918;28;20019;-76
2022/01/21 06:40:21;;;;;;;15.68;3.15;;;1.50;99.90;;;;;;5112065;28;20141;-75
2022/01/21 06:42:47;;;;;;;7.65;2.63;;;1.50;99.90;;;;;;5110602;27;20019;-73
2022/01/21 06:45:13;;;;;;;10.50;2.58;;;1.50;99.90;;;;;;5102934;28;20028;-74
2022/01/21 06:47:39;;;;;;;12.43;3.75;;;1.50;99.90;;;;;;5105692;28;20687;-74
2022/01/21 06:50:05;;;;;;;9.00;2.95;;;1.50;99.90;;;;;;5100852;28;20024;-75
2022/01/21 06:52:31;;;;;;;10.60;2.90;;;1.50;99.90;;;;;;5091251;28;20023;-74
2022/01/21 06:54:58;;;;;;;13.10;3.42;;;1.50;99.90;;;;;;5092728;28;20081;-75
2022/01/21 06:57:24;;;;;;;7.78;1.98;;;1.50;99.90;;;;;;5110539;28;20451;-75
2022/01/21 06:59:50;;;;;;;10.30;2.80;;;1.50;99.90;;;;;;5100803;28;20052;-72
2022/01/21 07:02:18;;;;;;;13.07;4.30;;;1.50;99.90;;;;;;5084868;28;20454;-73
2022/01/21 07:04:48;;;;;;;9.48;2.95;;;1.50;99.90;;;;;;5090579;28;20027;-72
2022/01/21 07:07:15;;;;;;;12.68;3.13;;;1.50;99.90;;;;;;5109766;27;20028;-74
2022/01/21 07:09:41;;;;;;;11.05;2.95;;;1.50;99.90;;;;;;5096616;28;20024;-73
2022/01/21 07:12:07;;;;;;;9.43;3.33;;;1.50;99.90;;;;;;5088218;28;20085;-73
2022/01/21 07:14:33;;;;;;;13.00;2.92;;;1.40;99.90;;;;;;5099470;28;20401;-74
2022/01/21 07:16:59;;;;;;;13.25;3.38;;;1.40;99.90;;;;;;5108583;28;20036;-73
2022/01/21 07:19:25;;;;;;;8.55;2.70;;;1.40;99.90;;;;;;5108350;28;20080;-74
2022/01/21 07:21:50;;;;;;;11.80;3.17;;;1.40;99.90;;;;;;5095084;28;20020;-72
2022/01/21 07:24:16;;;;;;;14.90;3.50;;;1.40;99.90;;;;;;5112255;27;20019;-73
2022/01/21 07:26:42;;;;;;;15.07;3.83;;;1.40;99.90;;;;;;5096013;27;20022;-73
2022/01/21 07:29:08;;;;;;;12.90;3.22;;;1.40;99.90;;;;;;5106038;27;20020;-74
2022/01/21 07:31:34;;;;;;;8.50;2.83;;;1.40;99.90;;;;;;5091982;28;20047;-73
2022/01/21 07:34:04;;;;;;;9.63;3.33;;;1.40;99.90;;;;;;5111611;27;20026;-73
2022/01/21 07:36:31;;;;;;;16.20;3.55;;;1.40;99.90;;;;;;5100594;28;20024;-76
2022/01/21 07:38:56;;;;;;;9.85;3.58;;;1.40;99.90;;;;;;5100750;28;20480;-74
2022/01/21 07:41:22;;;;;;;11.20;3.03;;;1.40;99.90;;;;;;5109928;28;20038;-72
2022/01/21 07:43:48;;;;;;;12.27;3.83;;;1.30;99.90;;;;;;5094797;28;20028;-72
2022/01/21 07:46:14;;;;;;;16.10;3.33;;;1.40;99.90;;;;;;5108709;28;20024;-73
2022/01/21 07:48:39;;;;;;;18.05;4.43;;;1.40;99.90;;;;;;5108656;28;20020;-74
2022/01/21 07:51:05;;;;;;;9.30;3.08;;;1.40;99.90;;;;;;5104653;28;20035;-73
2022/01/21 07:53:31;;;;;;;16.13;4.35;;;1.30;99.90;;;;;;5109474;28;20024;-72
2022/01/21 07:55:57;;;;;;;11.68;4.40;;;1.30;99.90;;;;;;5105055;28;20430;-74
2022/01/21 07:58:23;;;;;;;14.82;3.53;;;1.30;99.90;;;;;;5104659;28;20027;-73
2022/01/21 08:00:48;;;;;;;14.57;3.67;;;1.40;99.90;;;;;;5098898;28;20077;-73
2022/01/21 08:03:15;;;;;;;10.85;4.22;;;1.40;99.90;;;;;;5109261;28;20511;-73
2022/01/21 08:05:42;;;;;;;10.20;4.13;;;1.30;99.90;;;;;;5101504;28;20418;-73
2022/01/21 08:08:08;;;;;;;12.05;4.18;;;1.30;99.90;;;;;;5107176;28;20471;-73
2022/01/21 08:10:34;;;;;;;13.27;4.68;;;1.40;99.90;;;;;;5105686;28;20031;-72
2022/01/21 08:13:00;;;;;;;13.15;2.97;;;1.40;99.90;;;;;;5106337;28;20026;-73
2022/01/21 08:15:27;;;;;;;10.73;4.07;;;1.40;99.90;;;;;;5108519;28;20027;-72
2022/01/21 08:17:53;;;;;;;15.20;3.92;;;1.40;99.90;;;;;;5105351;28;20032;-72
2022/01/21 08:20:19;;;;;;;11.45;3.38;;;1.40;99.90;;;;;;5085707;28;20024;-72
2022/01/21 08:22:45;;;;;;;14.98;4.07;;;1.40;99.90;;;;;;5107545;28;20030;-72
2022/01/21 08:25:11;;;;;;;16.15;5.18;;;1.40;99.90;;;;;;5105295;28;20028;-73
2022/01/21 08:27:37;;;;;;;14.13;4.25;;;1.50;99.90;;;;;;5081695;28;20024;-73
2022/01/21 08:30:05;;;;;;;13.75;4.55;;;1.50;99.90;;;;;;5113976;28;20023;-72
2022/01/21 08:32:31;;;;;;;9.23;3.65;;;1.50;99.90;;;;;;5110993;28;20434;-73
2022/01/21 08:34:57;;;;;;;13.38;3.53;;;1.60;99.90;;;;;;5104166;28;20116;-73
2022/01/21 08:37:22;;;;;;;14.93;3.55;;;1.60;99.90;;;;;;5105042;28;20400;-73
2022/01/21 08:39:50;;;;;;;10.07;3.25;;;1.70;99.90;;;;;;5106026;28;20024;-73
2022/01/21 08:42:16;;;;;;;13.32;3.35;;;1.70;99.90;;;;;;5083061;28;20020;-73
2022/01/21 08:44:42;;;;;;;12.05;3.38;;;1.80;99.90;;;;;;5088206;28;20419;-73
2022/01/21 08:47:08;;;;;;;13.20;3.83;;;1.90;99.90;;;;;;5085643;28;20461;-71
2022/01/21 08:49:34;;;;;;;8.43;3.17;;;1.90;99.90;;;;;;5103277;28;20028;-73
2022/01/21 08:52:00;;;;;;;12.30;3.25;;;1.90;99.90;;;;;;5103526;28;20508;-73
2022/01/21 08:54:27;;;;;;;9.40;4.10;;;2.00;99.90;;;;;;5104349;28;20391;-73
2022/01/21 08:56:54;;;;;;;12.18;3.47;;;1.90;99.90;;;;;;5100969;28;20026;-73
2022/01/21 08:59:21;;;;;;;12.32;4.65;;;1.90;99.90;;;;;;5101834;28;20443;-73
2022/01/21 09:01:49;;;;;;;12.20;3.42;;;2.00;99.90;;;;;;5102809;28;20036;-71
2022/01/21 09:04:17;;;;;;;10.55;3.30;;;2.00;99.90;;;;;;5111380;28;20032;-74
2022/01/21 09:06:44;;;;;;;11.88;4.03;;;2.10;99.90;;;;;;5113205;28;20032;-74
2022/01/21 09:09:10;;;;;;;10.32;2.67;;;2.10;99.90;;;;;;5108189;28;20108;-71
2022/01/21 09:11:35;;;;;;;10.25;3.03;;;2.10;99.90;;;;;;5111310;28;20110;-72
2022/01/21 09:14:02;;;;;;;9.70;3.65;;;2.10;99.90;;;;;;5108624;28;20495;-73
2022/01/21 09:16:28;;;;;;;11.32;4.05;;;2.20;99.90;;;;;;5092944;27;20081;-75
2022/01/21 09:18:56;;;;;;;14.35;3.72;;;2.30;99.90;;;;;;5112710;27;20055;-73
2022/01/21 09:21:25;;;;;;;14.60;4.22;;;2.30;99.90;;;;;;5109983;28;20016;-73
2022/01/21 09:23:52;;;;;;;8.13;3.10;;;2.40;99.90;;;;;;5111639;28;20019;-73
2022/01/21 09:26:19;;;;;;;18.42;3.60;;;2.40;99.90;;;;;;5095521;28;20114;-73
2022/01/21 09:28:46;;;;;;;8.52;2.95;;;2.40;99.90;;;;;;5112751;28;20080;-75
2022/01/21 09:31:12;;;;;;;7.80;3.03;;;2.50;99.90;;;;;;5109324;28;20064;-76
2022/01/21 09:33:38;;;;;;;11.57;4.07;;;2.50;99.90;;;;;;5086984;28;20072;-76
2022/01/21 09:36:04;;;;;;;13.32;3.83;;;2.50;99.90;;;;;;5106389;28;20423;-75
2022/01/21 09:38:30;;;;;;;7.70;3.20;;;2.50;99.90;;;;;;5086862;28;20058;-75
2022/01/21 09:40:57;;;;;;;13.52;3.65;;;2.50;99.90;;;;;;5104256;28;20028;-73
2022/01/21 09:43:22;;;;;;;12.48;3.65;;;2.50;99.90;;;;;;5090814;28;20038;-76
2022/01/21 09:45:54;;;;;;;13.40;4.05;;;2.50;99.90;;;;;;5109747;28;20071;-74
2022/01/21 09:48:28;;;;;;;12.93;4.95;;;2.50;99.90;;;;;;5107529;28;20032;-74
2022/01/21 09:50:58;;;;;;;12.65;3.40;;;2.50;99.90;;;;;;5087971;28;20636;-74
2022/01/21 09:53:35;;;;;;;10.15;3.83;;;2.50;99.90;;;;;;5101963;28;20028;-73
2022/01/21 09:56:04;;;;;;;11.38;3.40;;;2.40;99.90;;;;;;5092202;28;20123;-75
2022/01/21 09:58:30;;;;;;;12.32;3.33;;;2.50;99.90;;;;;;5107867;28;20382;-73
2022/01/21 10:00:58;;;;;;;12.70;3.25;;;2.50;99.90;;;;;;5113957;28;20063;-73
2022/01/21 10:03:25;;;;;;;15.50;4.28;;;2.60;99.90;;;;;;5103376;27;20483;-73
2022/01/21 10:05:53;;;;;;;13.43;3.15;;;2.60;99.90;;;;;;5115468;27;20812;-73
2022/01/21 10:08:21;;;;;;;13.07;3.42;;;2.70;99.90;;;;;;5111837;28;20055;-72
2022/01/21 10:10:47;;;;;;;10.32;3.47;;;2.80;99.90;;;;;;5107807;28;20404;-75
2022/01/21 10:13:18;;;;;;;9.70;3.53;;;2.70;99.90;;;;;;5088260;28;20534;-75
2022/01/21 10:15:44;;;;;;;10.55;3.47;;;2.80;99.90;;;;;;5087295;28;20032;-75
2022/01/21 10:18:19;;;;;;;11.35;3.90;;;2.80;99.90;;;;;;5097314;28;20020;-75
2022/01/21 10:21:06;;;;;;;18.98;4.13;;;2.90;99.90;;;;;;5102492;28;20038;-74
2022/01/21 10:23:36;;;;;;;9.73;3.53;;;3.00;99.90;;;;;;5097068;28;20044;-75
2022/01/21 10:26:12;;;;;;;12.95;3.70;;;3.10;99.90;;;;;;5080138;28;20119;-75
2022/01/21 10:28:43;;;;;;;8.68;2.97;;;3.20;99.90;;;;;;5099551;27;20027;-74
2022/01/21 10:31:16;;;;;;;9.80;3.03;;;3.20;99.90;;;;;;5105885;28;20091;-75
2022/01/21 10:33:45;;;;;;;11.73;3.85;;;3.20;99.90;;;;;;5093378;28;20028;-75
2022/01/21 10:36:34;;;;;;;10.88;3.00;;;3.20;99.90;;;;;;5090310;28;20035;-75
2022/01/21 10:39:10;;;;;;;15.65;3.88;;;3.30;99.90;;;;;;5106246;27;20024;-75
2022/01/21 10:41:41;;;;;;;10.07;3.53;;;3.30;99.90;;;;;;5104804;28;20020;-75
2022/01/21 10:44:10;;;;;;;10.20;4.05;;;3.30;99.90;;;;;;5105622;28;20051;-77
2022/01/21 10:46:38;;;;;;;7.82;3.35;;;3.30;99.90;;;;;;5090317;28;20059;-75
2022/01/21 10:49:06;;;;;;;12.13;3.10;;;3.30;99.90;;;;;;5106855;28;20103;-75
2022/01/21 10:51:34;;;;;;;13.38;3.17;;;3.30;99.90;;;;;;5111863;27;20039;-75
2022/01/21 10:54:22;;;;;;;11.88;3.15;;;3.30;99.90;;;;;;5085331;28;20032;-76
2022/01/21 10:57:13;;;;;;;10.00;2.85;;;3.30;99.90;;;;;;5091849;28;20028;-75
2022/01/21 10:59:58;;;;;;;13.68;3.05;;;3.30;99.90;;;;;;5099564;28;20030;-75
2022/01/21 11:02:40;;;;;;;16.30;3.78;;;3.40;99.90;;;;;;5106710;28;20036;-76
2022/01/21 11:05:15;;;;;;;7.18;2.88;;;3.50;99.90;;;;;;5106735;28;20118;-76
2022/01/21 11:07:54;;;;;;;9.43;2.90;;;3.50;99.90;;;;;;5091755;28;20057;-75
2022/01/21 11:10:32;;;;;;;15.40;3.70;;;3.60;99.90;;;;;;5088116;28;20032;-75
2022/01/21 11:13:02;;;;;;;9.30;2.60;;;3.70;99.90;;;;;;5089455;28;20153;-76
2022/01/21 11:15:41;;;;;;;5.85;2.00;;;3.70;99.90;;;;;;5106019;28;20388;-75
2022/01/21 11:18:10;;;;;;;15.35;3.20;;;3.70;99.90;;;;;;5104018;28;20024;-75
2022/01/21 11:20:40;;;;;;;5.70;2.45;;;3.60;99.90;;;;;;5107145;27;20090;-75
2022/01/21 11:23:08;;;;;;;12.60;3.58;;;3.50;99.90;;;;;;5104781;28;20074;-74
2022/01/21 11:25:54;;;;;;;13.63;3.78;;;3.60;99.90;;;;;;5105536;28;20023;-73
2022/01/21 11:28:21;;;;;;;15.05;4.15;;;3.50;99.90;;;;;;5104768;27;20392;-75
2022/01/21 11:30:48;;;;;;;8.85;3.30;;;3.60;99.90;;;;;;5104607;28;20594;-74
2022/01/21 11:33:14;;;;;;;17.50;3.78;;;3.60;99.90;;;;;;5086030;28;20505;-74
2022/01/21 11:35:40;;;;;;;10.30;3.50;;;3.60;99.90;;;;;;5101112;28;20544;-74
2022/01/21 11:38:10;;;;;;;10.57;2.90;;;3.50;99.90;;;;;;5106215;27;20468;-74
2022/01/21 11:40:36;;;;;;;7.57;2.55;;;3.60;99.90;;;;;;5085523;28;20047;-74
2022/01/21 11:43:04;;;;;;;8.07;3.22;;;3.50;99.90;;;;;;5108964;28;20024;-74
2022/01/21 11:48:49;;;;;;;12.27;3.00;;;3.50;99.90;;;;;;5106482;28;20023;-73
2022/01/21 11:50:49;;;;;;;8.73;3.05;;;3.50;99.90;;;;;;5109804;28;20398;-74
2022/01/21 11:53:35;;;;;;;11.45;2.95;;;3.40;99.90;;;;;;5087404;28;20150;-73
2022/01/21 11:56:00;;;;;;;12.60;2.80;;;3.40;99.90;;;;;;5107326;28;20042;-74
2022/01/21 11:58:26;;;;;;;25.83;4.40;;;3.30;99.90;;;;;;5104280;28;20103;-74
2022/01/21 12:00:53;;;;;;;10.50;3.55;;;3.20;99.90;;;;;;5088182;28;20024;-73
2022/01/21 12:03:22;;;;;;;8.18;3.42;;;3.20;99.90;;;;;;5104335;28;20015;-75
2022/01/21 12:05:49;;;;;;;11.43;3.55;;;3.20;99.90;;;;;;5107830;28;20473;-75
2022/01/21 12:08:15;;;;;;;14.95;3.78;;;3.30;99.90;;;;;;5088537;28;20407;-75
2022/01/21 12:10:43;;;;;;;15.27;4.28;;;3.40;99.90;;;;;;5101322;28;20035;-76
2022/01/21 12:13:16;;;;;;;8.40;3.17;;;3.40;99.90;;;;;;5105814;28;20023;-74
2022/01/21 12:20:44;;;;;;;12.57;3.28;;;3.40;99.90;;;;;;5111269;28;20091;-74
2022/01/21 12:23:18;;;;;;;12.60;3.42;;;3.40;99.90;;;;;;5105120;28;20052;-74
2022/01/21 12:26:09;;;;;;;8.20;2.75;;;3.40;99.90;;;;;;5087763;28;20103;-74
2022/01/21 12:28:38;;;;;;;13.82;2.97;;;3.50;99.90;;;;;;5100953;28;20023;-74
2022/01/21 12:31:04;;;;;;;8.85;3.20;;;3.40;99.90;;;;;;5086452;28;20123;-74
2022/01/21 12:36:26;;;;;;;14.80;4.03;;;3.40;99.90;;;;;;5105445;28;20027;-74
2022/01/21 12:41:29;;;;;;;12.82;3.85;;;3.40;99.90;;;;;;5102680;28;20077;-74
2022/01/21 12:44:05;;;;;;;8.75;3.10;;;3.50;99.90;;;;;;5102341;28;20047;-74
2022/01/21 12:46:35;;;;;;;10.82;3.50;;;3.40;99.90;;;;;;5097453;28;20026;-75
2022/01/21 12:49:21;;;;;;;10.13;3.45;;;3.40;99.90;;;;;;5108161;28;20023;-73
2022/01/21 12:52:12;;;;;;;8.68;2.70;;;3.50;99.90;;;;;;5113593;28;20024;-74
2022/01/21 12:57:32;;;;;;;10.45;2.85;;;3.30;99.90;;;;;;5104212;28;20038;-74
2022/01/21 13:00:08;;;;;;;8.65;3.13;;;3.40;99.90;;;;;;5108120;28;20589;-71
2022/01/21 13:02:34;;;;;;;11.65;2.80;;;3.30;99.90;;;;;;5116145;28;20047;-71
2022/01/21 13:05:19;;;;;;;12.70;3.22;;;3.30;99.90;;;;;;5115865;28;20024;-71
2022/01/21 13:08:10;;;;;;;13.15;3.15;;;3.40;99.90;;;;;;5115340;28;20024;-71
2022/01/21 13:10:38;;;;;;;7.70;2.53;;;3.40;99.90;;;;;;5097420;28;20066;-71
2022/01/21 13:15:49;;;;;;;10.98;3.22;;;3.40;99.90;;;;;;5116238;28;20024;-71
2022/01/21 13:18:17;;;;;;;10.35;3.63;;;3.30;99.90;;;;;;5088282;28;20028;-71
2022/01/21 13:20:47;;;;;;;12.55;3.17;;;3.30;99.90;;;;;;5096189;28;20095;-71
2022/01/21 13:23:28;;;;;;;7.13;2.50;;;3.20;99.90;;;;;;5106319;28;20021;-71
2022/01/21 13:26:12;;;;;;;8.80;2.22;;;3.30;99.90;;;;;;5097192;28;20016;-71
2022/01/21 13:28:53;;;;;;;;;;;3.20;99.90;;;;;;5096855;28;20020;-71
2022/01/21 13:31:19;;;;;;;9.18;2.65;;;3.20;99.90;;;;;;5096128;28;19904;-71
2022/01/21 13:33:44;;;;;;;8.35;2.80;;;3.30;99.90;;;;;;5095773;28;20039;-71
2022/01/21 13:36:11;;;;;;;8.70;3.35;;;3.40;99.90;;;;;;5095290;28;20024;-71
2022/01/21 13:38:40;;;;;;;12.88;3.35;;;3.50;99.90;;;;;;5113733;28;20046;-71
2022/01/21 13:41:11;;;;;;;12.15;3.42;;;3.50;99.90;;;;;;5105874;28;20095;-71
2022/01/21 13:43:37;;;;;;;8.82;3.00;;;3.40;99.90;;;;;;5095493;28;20024;-72
2022/01/21 13:46:10;;;;;;;9.30;3.45;;;3.50;99.90;;;;;;5095520;28;20031;-71
2022/01/21 13:48:37;;;;;;;8.40;3.00;;;3.50;99.90;;;;;;5077358;28;20050;-71
2022/01/21 13:51:07;;;;;;;9.30;2.55;;;3.60;99.90;;;;;;5114720;28;20040;-72
2022/01/21 13:53:32;;;;;;;10.75;2.30;;;3.60;99.90;;;;;;5095363;28;20034;-71
2022/01/21 13:56:00;;;;;;;9.25;2.88;;;3.60;99.90;;;;;;5095190;28;20024;-71
2022/01/21 13:58:31;;;;;;;10.10;2.78;;;3.60;99.90;;;;;;5094402;28;20066;-71
2022/01/21 14:01:01;;;;;;;14.02;3.47;;;3.60;99.90;;;;;;5095431;28;20168;-71
2022/01/21 14:03:35;;;;;;;8.00;2.30;;;3.60;99.90;;;;;;5099365;28;20076;-71
2022/01/21 14:06:03;;;;;;;8.10;2.22;;;3.60;99.90;;;;;;5107151;28;20110;-71